Time;durP1;ratioP1;P1;durP2;ratioP2;P2;SDS_P1;SDS_P2;PMS_P1;PMS_P2;Temp;Humidity;BMP_temperature;BMP_pressure;BME280_temperature;BME280_humidity;BME280_pressure;Samples;Min_cycle;Max_cycle;Signal;HPM_P1;HPM_P2
2021/12/25 00:04:13;;;;;;;2.28;1.20;;;;;;;;;;6103500;23;20123;-93
2021/12/25 00:13:03;;;;;;;;;;;;;;;;;;;;;
2021/12/25 00:16:09;;;;;;;2.92;1.35;;;;;;;;;;6072853;23;20018;-94
2021/12/25 00:19:02;;;;;;;2.30;1.30;;;;;;;;;;5989248;23;20055;-95
2021/12/25 00:25:10;;;;;;;2.38;1.30;;;;;;;;;;5933768;24;20077;-95
2021/12/25 00:27:53;;;;;;;1.30;1.20;;;;;;;;;;5933478;24;20103;-94
2021/12/25 00:34:01;;;;;;;1.95;0.95;;;;;;;;;;5807731;24;20026;-95
2021/12/25 00:36:57;;;;;;;6.97;1.20;;;;;;;;;;5745948;24;20016;-94
2021/12/25 00:39:46;;;;;;;6.82;1.60;;;;;;;;;;5696239;25;20020;-95
2021/12/25 00:46:31;;;;;;;1.00;0.73;;;-0.90;99.90;;;;;;5148148;27;1478380;-92
2021/12/25 00:48:57;;;;;;;2.15;1.27;;;;;;;;;;5174683;22;20040;-93
2021/12/25 00:51:46;;;;;;;2.60;1.40;;;;;;;;;;5059573;28;20473;-91
2021/12/25 00:57:31;;;;;;;;;;;-1.10;99.90;;;;;;5035391;28;20045;-93
2021/12/25 01:00:00;;;;;;;4.55;1.40;;;;;;;;;;5033908;28;20009;-92
2021/12/25 01:02:26;;;;;;;4.95;1.73;;;;;;;;;;5017702;28;20056;-92
2021/12/25 01:04:52;;;;;;;1.48;1.15;;;;;;;;;;5018288;28;20088;-92
2021/12/25 01:07:18;;;;;;;3.20;1.05;;;;;;;;;;5018118;28;20041;-92
2021/12/25 01:09:45;;;;;;;2.78;1.75;;;;;;;;;;5018686;28;20053;-93
2021/12/25 01:12:13;;;;;;;3.58;1.30;;;;;;;;;;5018407;28;20128;-93
2021/12/25 01:14:46;;;;;;;4.47;2.28;;;;;;;;;;5035112;28;20600;-92
2021/12/25 01:31:00;;;;;;;2.08;1.80;;;;;;;;;;5036242;28;20053;-91
2021/12/25 01:33:49;;;;;;;0.90;0.90;;;;;;;;;;5038635;28;20076;-91
2021/12/25 01:36:33;;;;;;;5.22;1.10;;;;;;;;;;5096250;28;20051;-94
2021/12/25 01:39:13;;;;;;;4.20;1.15;;;;;;;;;;5098938;28;20059;-93
2021/12/25 01:49:39;;;;;;;1.75;0.98;;;;;;;;;;5057366;28;20056;-94
2021/12/25 01:52:06;;;;;;;1.50;1.00;;;;;;;;;;5037453;28;20053;-95
2021/12/25 01:54:35;;;;;;;2.08;0.90;;;;;;;;;;5053131;28;20053;-94
2021/12/25 01:57:04;;;;;;;1.65;1.02;;;;;;;;;;5005224;28;20058;-95
2021/12/25 01:59:30;;;;;;;1.05;0.98;;;;;;;;;;5041256;28;20128;-95
2021/12/25 02:01:59;;;;;;;2.40;1.00;;;;;;;;;;5008190;28;20049;-95
2021/12/25 02:04:32;;;;;;;0.65;0.65;;;;;;;;;;5041980;28;20092;-94
2021/12/25 02:07:05;;;;;;;1.67;0.85;;;;;;;;;;5041536;28;20064;-92
2021/12/25 02:09:33;;;;;;;0.57;0.57;;;;;;;;;;5026460;28;20103;-94
2021/12/25 02:12:00;;;;;;;1.02;0.90;;;;;;;;;;5008578;28;20061;-94
2021/12/25 02:14:28;;;;;;;1.30;1.08;;;;;;;;;;5048289;28;20053;-96
2021/12/25 02:17:01;;;;;;;3.42;1.10;;;;;;;;;;5017467;28;20061;-94
2021/12/25 02:19:37;;;;;;;1.02;0.90;;;;;;;;;;5049394;28;20120;-96
2021/12/25 02:22:04;;;;;;;1.20;0.60;;;;;;;;;;5049166;28;20144;-94
2021/12/25 02:24:36;;;;;;;2.33;1.35;;;;;;;;;;5035045;28;20103;-94
2021/12/25 02:27:06;;;;;;;2.00;0.90;;;;;;;;;;5049658;28;20057;-91
2021/12/25 02:29:36;;;;;;;1.03;0.90;;;;;;;;;;5056257;28;20045;-93
2021/12/25 02:32:03;;;;;;;3.88;0.90;;;;;;;;;;5051445;28;20313;-93
2021/12/25 02:34:31;;;;;;;1.40;0.90;;;;;;;;;;5118030;23;20120;-90
2021/12/25 02:36:57;;;;;;;1.10;1.00;;;;;;;;;;5029795;28;20052;-92
2021/12/25 02:39:23;;;;;;;5.15;1.75;;;;;;;;;;5015996;28;20057;-96
2021/12/25 02:42:26;;;;;;;1.05;0.90;;;;;;;;;;5033053;28;20410;-91
2021/12/25 02:45:14;;;;;;;1.10;0.50;;;;;;;;;;4994880;28;20061;-95
2021/12/25 02:47:51;;;;;;;1.55;0.80;;;;;;;;;;4994850;28;20042;-96
2021/12/25 02:50:28;;;;;;;6.82;1.08;;;;;;;;;;4993309;28;20177;-94
2021/12/25 02:52:57;;;;;;;1.05;0.73;;;;;;;;;;4990120;28;20085;-96
2021/12/25 02:55:23;;;;;;;0.57;0.57;;;;;;;;;;4982843;28;20058;-95
2021/12/25 02:57:55;;;;;;;0.70;0.60;;;;;;;;;;4989009;28;20586;-93
2021/12/25 03:00:32;;;;;;;0.70;0.70;;;;;;;;;;4991189;28;20050;-96
2021/12/25 03:03:17;;;;;;;0.95;0.80;;;;;;;;;;4994050;28;20061;-95
2021/12/25 03:05:53;;;;;;;0.77;0.77;;;;;;;;;;4992623;28;20111;-96
2021/12/25 03:11:35;;;;;;;1.05;0.80;;;;;;;;;;4984455;28;20066;-94
2021/12/25 03:14:36;;;;;;;1.17;0.60;;;;;;;;;;4997604;28;20114;-93
2021/12/25 03:17:14;;;;;;;1.70;0.80;;;;;;;;;;4980188;28;20101;-94
2021/12/25 03:19:40;;;;;;;0.70;0.70;;;;;;;;;;4979053;28;20063;-95
2021/12/25 03:22:06;;;;;;;0.60;0.60;;;;;;;;;;4980448;28;20108;-93
2021/12/25 03:24:32;;;;;;;1.50;1.08;;;;;;;;;;4979842;28;20505;-95
2021/12/25 03:27:01;;;;;;;2.35;1.05;;;;;;;;;;4980560;28;20062;-95
2021/12/25 03:29:45;;;;;;;;;;;;;;;;;;;;;
2021/12/25 03:32:13;;;;;;;2.55;0.52;;;;;;;;;;5005513;28;20046;-96
2021/12/25 03:34:49;;;;;;;0.52;0.52;;;;;;;;;;4990132;28;20086;-96
2021/12/25 03:37:18;;;;;;;0.63;0.63;;;;;;;;;;5021498;28;20398;-96
2021/12/25 03:39:44;;;;;;;0.90;0.73;;;;;;;;;;5009386;28;20052;-94
2021/12/25 03:42:11;;;;;;;1.08;0.85;;;;;;;;;;5026111;28;20116;-94
2021/12/25 03:44:37;;;;;;;0.85;0.68;;;;;;;;;;5009062;28;20036;-96
2021/12/25 03:53:11;;;;;;;0.70;0.70;;;;;;;;;;4977552;28;20042;-93
2021/12/25 03:58:28;;;;;;;0.70;0.70;;;;;;;;;;4976443;28;20181;-94
2021/12/25 04:01:00;;;;;;;0.85;0.63;;;;;;;;;;4945223;28;20090;-95
2021/12/25 04:03:41;;;;;;;0.82;0.82;;;;;;;;;;4944550;28;20526;-91
2021/12/25 04:06:10;;;;;;;1.65;0.98;;;;;;;;;;4944223;28;20051;-94
2021/12/25 04:08:42;;;;;;;0.73;0.70;;;;;;;;;;4943791;28;20051;-93
2021/12/25 04:11:24;;;;;;;2.40;0.73;;;;;;;;;;4943143;28;20047;-92
2021/12/25 04:13:50;;;;;;;1.52;0.90;;;;;;;;;;4943494;28;20500;-93
2021/12/25 04:16:16;;;;;;;0.70;0.70;;;;;;;;;;4943815;28;20046;-93
2021/12/25 04:18:42;;;;;;;0.60;0.60;;;;;;;;;;4942953;28;20042;-94
2021/12/25 04:21:08;;;;;;;1.58;1.10;;;;;;;;;;4942379;28;20055;-92
2021/12/25 04:23:38;;;;;;;2.53;0.80;;;;;;;;;;4959162;28;22017;-94
2021/12/25 04:26:06;;;;;;;1.27;0.80;;;;;;;;;;4951561;28;20058;-92
2021/12/25 04:28:58;;;;;;;1.17;0.90;;;;;;;;;;5003135;28;20045;-93
2021/12/25 05:03:45;;;;;;;2.08;1.00;;;;;;;;;;5015673;28;20049;-88
2021/12/25 05:06:11;;;;;;;0.77;0.77;;;;;;;;;;5016510;28;20045;-88
2021/12/25 05:08:38;;;;;;;2.45;0.82;;;;;;;;;;5017033;28;20384;-87
2021/12/25 05:11:04;;;;;;;4.15;1.00;;;;;;;;;;5016480;28;20062;-88
2021/12/25 05:13:30;;;;;;;1.08;0.70;;;;;;;;;;5000059;28;20041;-87
2021/12/25 05:15:56;;;;;;;3.95;0.88;;;;;;;;;;5016584;28;20502;-88
2021/12/25 05:18:22;;;;;;;3.45;0.68;;;;;;;;;;5017387;28;20510;-88
2021/12/25 05:20:48;;;;;;;0.98;0.80;;;;;;;;;;5016553;28;20048;-88
2021/12/25 05:23:15;;;;;;;0.80;0.80;;;;;;;;;;5000052;28;20041;-87
2021/12/25 05:25:41;;;;;;;4.40;1.60;;;;;;;;;;4999142;28;20106;-87
2021/12/25 05:28:07;;;;;;;1.38;0.90;;;;;;;;;;4999955;28;20041;-87
2021/12/25 05:30:33;;;;;;;0.95;0.77;;;;;;;;;;5000855;28;20123;-88
2021/12/25 05:32:59;;;;;;;2.83;0.75;;;;;;;;;;5020524;28;20042;-86
2021/12/25 05:35:25;;;;;;;3.33;0.73;;;;;;;;;;5038108;28;20528;-87
2021/12/25 05:37:57;;;;;;;1.15;1.05;;;;;;;;;;5020121;28;20105;-86
2021/12/25 05:40:24;;;;;;;1.50;1.00;;;;;;;;;;5003970;28;20049;-85
2021/12/25 05:42:50;;;;;;;2.17;1.13;;;;;;;;;;5004185;28;20041;-91
2021/12/25 05:45:17;;;;;;;0.70;0.70;;;;;;;;;;5004673;28;20049;-91
2021/12/25 05:47:43;;;;;;;1.48;0.70;;;;;;;;;;5021240;28;20045;-89
2021/12/25 05:50:09;;;;;;;3.13;0.82;;;;;;;;;;5020244;28;20099;-89
2021/12/25 05:52:35;;;;;;;4.95;0.85;;;;;;;;;;5020457;28;20049;-90
2021/12/25 05:55:01;;;;;;;0.65;0.65;;;;;;;;;;5037829;28;20041;-86
2021/12/25 05:57:27;;;;;;;1.55;0.80;;;;;;;;;;5003820;28;20048;-91
2021/12/25 05:59:53;;;;;;;0.60;0.60;;;;;;;;;;5037936;28;20569;-89
2021/12/25 06:02:19;;;;;;;0.65;0.60;;;;;;;;;;5003428;28;20490;-90
2021/12/25 06:04:45;;;;;;;2.70;0.80;;;;;;;;;;5004014;28;20513;-92
2021/12/25 06:07:11;;;;;;;2.38;0.65;;;;;;;;;;5020659;28;20045;-91
2021/12/25 06:09:38;;;;;;;1.48;0.80;;;;;;;;;;5038590;28;20406;-92
2021/12/25 06:12:06;;;;;;;2.35;0.93;;;;;;;;;;5020571;28;20120;-90
2021/12/25 06:14:33;;;;;;;0.50;0.50;;;;;;;;;;5038240;28;20049;-90
2021/12/25 06:17:01;;;;;;;0.63;0.55;;;;;;;;;;5020840;28;20041;-92
2021/12/25 06:19:27;;;;;;;0.80;0.80;;;;;;;;;;5038847;28;20474;-91
2021/12/25 06:21:53;;;;;;;2.10;0.73;;;;;;;;;;5037936;28;20486;-92
2021/12/25 06:24:20;;;;;;;4.95;0.77;;;;;;;;;;5021783;28;20046;-93
2021/12/25 06:26:46;;;;;;;5.20;0.95;;;;;;;;;;5021753;28;20087;-89
2021/12/25 06:29:19;;;;;;;2.67;0.90;;;;;;;;;;5038895;28;20041;-93
2021/12/25 06:31:45;;;;;;;0.75;0.70;;;;;;;;;;5020603;28;20413;-90
2021/12/25 06:34:11;;;;;;;1.10;1.00;;;;;;;;;;5019900;28;20035;-90
2021/12/25 06:36:37;;;;;;;0.82;0.73;;;;;;;;;;5003590;28;20494;-93
2021/12/25 06:39:04;;;;;;;1.20;0.77;;;;;;;;;;5002621;28;20517;-87
2021/12/25 06:41:30;;;;;;;1.58;0.63;;;;;;;;;;5002966;28;20045;-85
2021/12/25 06:43:57;;;;;;;17.73;1.40;;;;;;;;;;5002074;28;20068;-86
2021/12/25 06:46:23;;;;;;;1.15;0.70;;;;;;;;;;5001779;28;20038;-86
2021/12/25 06:48:49;;;;;;;0.90;0.80;;;;;;;;;;5036417;28;20048;-87
2021/12/25 06:51:15;;;;;;;0.50;0.50;;;;;;;;;;5019048;28;20057;-87
2021/12/25 06:53:42;;;;;;;0.75;0.63;;;;;;;;;;5019153;28;20042;-88
2021/12/25 06:56:08;;;;;;;1.05;0.70;;;;;;;;;;5018430;28;20137;-86
2021/12/25 06:58:34;;;;;;;0.93;0.90;;;;;;;;;;5036982;28;20080;-88
2021/12/25 07:01:00;;;;;;;3.72;1.33;;;;;;;;;;5019216;28;20041;-87
2021/12/25 07:03:27;;;;;;;2.60;1.25;;;;;;;;;;5001259;28;20124;-88
2021/12/25 07:05:53;;;;;;;2.92;1.25;;;;;;;;;;5017610;28;20045;-87
2021/12/25 07:08:19;;;;;;;1.55;0.85;;;;;;;;;;5001865;28;20049;-87
2021/12/25 07:10:45;;;;;;;2.83;2.20;;;;;;;;;;5018340;28;20057;-86
2021/12/25 07:13:16;;;;;;;2.63;1.17;;;;;;;;;;5035385;28;20135;-87
2021/12/25 07:15:42;;;;;;;0.82;0.82;;;;;;;;;;5018005;28;20042;-87
2021/12/25 07:18:09;;;;;;;1.10;0.75;;;;;;;;;;5018007;28;20041;-87
2021/12/25 07:20:35;;;;;;;2.20;0.90;;;;;;;;;;5018416;28;20487;-91
2021/12/25 07:23:01;;;;;;;4.45;1.10;;;;;;;;;;5019626;28;20127;-92
2021/12/25 07:25:27;;;;;;;1.10;0.95;;;;;;;;;;5018751;28;20095;-91
2021/12/25 07:27:53;;;;;;;0.93;0.88;;;;;;;;;;5002301;28;20051;-92
2021/12/25 07:30:19;;;;;;;1.10;1.00;;;;;;;;;;5018173;28;20041;-92
2021/12/25 07:32:45;;;;;;;1.17;0.70;;;;;;;;;;5017617;28;20049;-91
2021/12/25 07:35:12;;;;;;;4.30;1.10;;;;;;;;;;5017916;28;20085;-91
2021/12/25 07:37:38;;;;;;;2.88;1.08;;;;;;;;;;5001977;28;20509;-90
2021/12/25 07:40:05;;;;;;;1.27;1.05;;;;;;;;;;5002125;28;20049;-90
2021/12/25 07:42:32;;;;;;;1.83;1.00;;;;;;;;;;5018156;28;20057;-90
2021/12/25 07:45:04;;;;;;;2.90;1.13;;;;;;;;;;5002308;28;20387;-91
2021/12/25 07:47:32;;;;;;;2.28;1.02;;;;;;;;;;5002101;28;20085;-90
2021/12/25 07:49:59;;;;;;;0.85;0.70;;;;;;;;;;5013959;28;20053;-90
2021/12/25 07:52:26;;;;;;;1.45;0.93;;;;;;;;;;5035822;28;20471;-90
2021/12/25 07:54:52;;;;;;;0.73;0.70;;;;;;;;;;5017975;28;20128;-90
2021/12/25 07:57:18;;;;;;;0.80;0.80;;;;;;;;;;5035535;28;20041;-91
2021/12/25 07:59:44;;;;;;;0.82;0.82;;;;;;;;;;5035616;28;20549;-86
2021/12/25 08:02:10;;;;;;;0.80;0.80;;;;;;;;;;5017851;28;20042;-87
2021/12/25 08:04:36;;;;;;;1.52;0.75;;;;;;;;;;5017428;28;20042;-86
2021/12/25 08:07:03;;;;;;;3.08;1.00;;;;;;;;;;5018838;28;20045;-85
2021/12/25 08:09:31;;;;;;;1.40;1.15;;;;;;;;;;5002390;28;20056;-86
2021/12/25 08:11:58;;;;;;;2.80;0.90;;;;;;;;;;5000618;28;20133;-89
2021/12/25 08:14:25;;;;;;;4.47;0.75;;;;;;;;;;5000342;28;20136;-87
2021/12/25 08:17:01;;;;;;;4.68;0.80;;;;;;;;;;5035711;28;20037;-88
2021/12/25 08:19:27;;;;;;;7.32;1.17;;;;;;;;;;5016491;28;20041;-86
2021/12/25 08:21:53;;;;;;;1.02;0.80;;;;;;;;;;5016860;28;20041;-88
2021/12/25 08:24:20;;;;;;;0.88;0.85;;;;;;;;;;5000637;28;20052;-87
2021/12/25 08:26:46;;;;;;;2.13;1.10;;;;;;;;;;5001615;28;20041;-86
2021/12/25 08:29:14;;;;;;;3.58;0.95;;;;;;;;;;5017536;28;20143;-86
2021/12/25 08:31:41;;;;;;;2.05;1.30;;;;;;;;;;5016792;28;20050;-85
2021/12/25 08:34:07;;;;;;;0.88;0.82;;;;;;;;;;4999966;28;20552;-86
2021/12/25 08:36:33;;;;;;;0.80;0.80;;;;;;;;;;5000551;28;20104;-85
2021/12/25 08:38:59;;;;;;;1.42;1.02;;;;;;;;;;5036161;28;20046;-90
2021/12/25 08:41:29;;;;;;;5.10;1.08;;;;;;;;;;5017584;28;20045;-89
2021/12/25 08:43:59;;;;;;;2.20;0.93;;;;;;;;;;5018195;28;20053;-89
2021/12/25 08:46:44;;;;;;;1.02;0.88;;;;;;;;;;5036040;28;20483;-88
2021/12/25 08:49:14;;;;;;;2.55;1.20;;;;;;;;;;5018865;28;20513;-88
2021/12/25 08:51:41;;;;;;;4.85;0.80;;;;;;;;;;5001851;28;20042;-88
2021/12/25 08:54:07;;;;;;;0.88;0.82;;;;;;;;;;5017658;28;20049;-88
2021/12/25 08:56:33;;;;;;;3.33;1.60;;;;;;;;;;5001903;28;20038;-89
2021/12/25 08:59:00;;;;;;;3.00;1.08;;;;;;;;;;4976165;28;20077;-89
2021/12/25 09:01:26;;;;;;;2.75;1.90;;;;;;;;;;4958781;28;20085;-89
2021/12/25 09:03:55;;;;;;;2.13;2.00;;;;;;;;;;4957844;28;20059;-89
2021/12/25 09:06:21;;;;;;;3.03;1.33;;;;;;;;;;4975701;28;20046;-89
2021/12/25 09:08:47;;;;;;;5.28;1.25;;;;;;;;;;4977544;28;20058;-90
2021/12/25 09:11:13;;;;;;;6.63;1.70;;;;;;;;;;4977813;28;20062;-87
2021/12/25 09:13:40;;;;;;;1.63;1.00;;;;;;;;;;4977937;28;20050;-88
2021/12/25 09:16:06;;;;;;;2.83;0.90;;;;;;;;;;4961894;28;20050;-89
2021/12/25 09:18:32;;;;;;;0.98;0.98;;;;;;;;;;4962188;28;20134;-89
2021/12/25 09:20:58;;;;;;;1.27;1.02;;;;;;;;;;4961047;28;20162;-89
2021/12/25 09:23:24;;;;;;;1.55;1.00;;;;;;;;;;4977674;28;20051;-88
2021/12/25 09:25:50;;;;;;;5.80;1.17;;;;;;;;;;4976769;28;20047;-91
2021/12/25 09:28:18;;;;;;;1.95;1.25;;;;;;;;;;4961173;28;20043;-89
2021/12/25 09:30:44;;;;;;;6.22;1.40;;;;;;;;;;5026811;28;20053;-88
2021/12/25 09:33:10;;;;;;;1.52;1.20;;;;;;;;;;5003823;28;20045;-90
2021/12/25 09:35:37;;;;;;;1.65;1.40;;;;;;;;;;5003217;28;20430;-89
2021/12/25 09:38:03;;;;;;;1.63;1.35;;;;;;;;;;5004808;28;20037;-90
2021/12/25 09:40:29;;;;;;;2.53;1.02;;;;;;;;;;5020176;28;20045;-89
2021/12/25 09:42:56;;;;;;;1.20;1.10;;;;;;;;;;5003679;28;20057;-90
2021/12/25 09:45:23;;;;;;;3.72;1.30;;;;;;;;;;5019738;28;20549;-88
2021/12/25 09:47:49;;;;;;;1.00;0.90;;;;;;;;;;5003227;28;20137;-90
2021/12/25 09:50:16;;;;;;;2.10;1.00;;;;;;;;;;5004982;28;20087;-87
2021/12/25 09:52:42;;;;;;;1.40;0.95;;;;;;;;;;5005076;28;20073;-90
2021/12/25 09:55:09;;;;;;;1.10;1.10;;;;;;;;;;5004616;28;20095;-90
2021/12/25 09:57:35;;;;;;;5.18;1.10;;;;;;;;;;5020820;28;20033;-90
2021/12/25 10:00:06;;;;;;;1.52;1.40;;;;;;;;;;5021170;28;20041;-91
2021/12/25 10:02:41;;;;;;;2.30;1.13;;;;;;;;;;5005046;28;20037;-90
2021/12/25 10:05:10;;;;;;;3.78;1.23;;;;;;;;;;5005039;28;20045;-91
2021/12/25 10:07:36;;;;;;;0.88;0.88;;;;;;;;;;5004349;28;20490;-90
2021/12/25 10:10:02;;;;;;;2.45;1.40;;;;;;;;;;5019735;28;20053;-91
2021/12/25 10:12:40;;;;;;;4.38;1.08;;;;;;;;;;5022100;28;20183;-85
2021/12/25 10:15:08;;;;;;;5.30;1.20;;;;;;;;;;5004901;28;20049;-85
2021/12/25 10:17:34;;;;;;;7.93;1.25;;;;;;;;;;5003636;28;20041;-85
2021/12/25 10:20:02;;;;;;;1.42;1.20;;;;;;;;;;5020757;28;20073;-84
2021/12/25 10:22:30;;;;;;;2.72;1.75;;;;;;;;;;5003373;28;20494;-85
2021/12/25 10:25:16;;;;;;;1.98;1.05;;;;;;;;;;5019791;28;20572;-84
2021/12/25 10:27:53;;;;;;;1.73;1.20;;;;;;;;;;5019566;28;20076;-84
2021/12/25 10:30:19;;;;;;;1.00;1.00;;;;;;;;;;5002711;28;20056;-84
2021/12/25 10:32:45;;;;;;;3.20;1.05;;;;;;;;;;5003248;28;20092;-84
2021/12/25 10:35:20;;;;;;;2.75;1.13;;;;;;;;;;5018530;28;20104;-85
2021/12/25 10:37:46;;;;;;;2.85;0.80;;;;;;;;;;5003615;28;20041;-84
2021/12/25 10:40:27;;;;;;;1.10;1.00;;;;;;;;;;5002767;28;20076;-86
2021/12/25 10:42:58;;;;;;;0.98;0.93;;;;;;;;;;5019812;28;20489;-84
2021/12/25 10:45:26;;;;;;;0.95;0.90;;;;;;;;;;5019126;28;20460;-84
2021/12/25 10:48:10;;;;;;;1.02;1.00;;;;;;;;;;5018620;28;20428;-84
2021/12/25 10:50:38;;;;;;;2.17;1.08;;;;;;;;;;5003644;28;20460;-84
2021/12/25 10:53:21;;;;;;;3.72;1.55;;;;;;;;;;5002703;28;20128;-84
2021/12/25 10:55:47;;;;;;;0.95;0.85;;;;;;;;;;5002412;28;20045;-85
2021/12/25 10:58:23;;;;;;;2.38;0.93;;;;;;;;;;5003298;28;20041;-85
2021/12/25 11:00:53;;;;;;;3.45;2.17;;;;;;;;;;5002635;28;20052;-84
2021/12/25 11:03:25;;;;;;;1.50;1.17;;;;;;;;;;5018450;28;20049;-87
2021/12/25 11:05:51;;;;;;;1.85;1.20;;;;;;;;;;5018660;28;20117;-84
2021/12/25 11:08:18;;;;;;;2.20;1.42;;;;;;;;;;5003383;28;20049;-85
2021/12/25 11:10:51;;;;;;;1.20;1.10;;;;;;;;;;5003154;28;20071;-85
2021/12/25 11:13:17;;;;;;;3.30;2.22;;;;;;;;;;5019204;28;20087;-84
2021/12/25 11:15:43;;;;;;;1.23;0.95;;;;;;;;;;5019559;28;20045;-84
2021/12/25 11:18:10;;;;;;;2.53;1.10;;;;;;;;;;5003367;28;20042;-85
2021/12/25 11:20:38;;;;;;;1.10;1.00;;;;;;;;;;5002743;28;20148;-84
2021/12/25 11:23:05;;;;;;;3.30;1.10;;;;;;;;;;5001823;28;20514;-85
2021/12/25 11:25:32;;;;;;;3.10;1.20;;;;;;;;;;5018772;28;20049;-85
2021/12/25 11:27:59;;;;;;;1.38;1.13;;;;;;;;;;5000531;28;20100;-84
2021/12/25 11:30:27;;;;;;;1.80;1.70;;;;;;;;;;5001846;28;20072;-85
2021/12/25 11:32:54;;;;;;;2.20;1.33;;;;;;;;;;5017652;28;20045;-85
2021/12/25 11:35:20;;;;;;;5.72;1.10;;;;;;;;;;5000993;28;20057;-85
2021/12/25 11:37:48;;;;;;;0.82;0.80;;;;;;;;;;5001134;28;20553;-85
2021/12/25 11:40:15;;;;;;;1.35;1.10;;;;;;;;;;5018106;28;20041;-85
2021/12/25 11:42:46;;;;;;;1.08;1.00;;;;;;;;;;5017842;28;20128;-85
2021/12/25 11:45:12;;;;;;;2.55;1.83;;;;;;;;;;5017524;28;20136;-85
2021/12/25 11:47:39;;;;;;;1.75;1.30;;;;;;;;;;5000844;28;20045;-85
2021/12/25 11:50:28;;;;;;;3.00;1.75;;;;;;;;;;5017571;28;20085;-85
2021/12/25 11:53:07;;;;;;;3.72;1.35;;;;;;;;;;4997431;28;20050;-85
2021/12/25 11:58:36;;;;;;;2.97;1.30;;;;;;;;;;4997323;28;20050;-86
2021/12/25 12:01:15;;;;;;;3.50;1.38;;;;;;;;;;4997573;28;20084;-85
2021/12/25 12:03:46;;;;;;;5.05;1.23;;;;;;;;;;4996847;28;20058;-86
2021/12/25 12:06:13;;;;;;;2.58;1.70;;;;;;;;;;4997014;28;20050;-85
2021/12/25 12:08:55;;;;;;;2.80;1.52;;;;;;;;;;4997092;28;20041;-86
2021/12/25 12:11:22;;;;;;;1.70;1.25;;;;;;;;;;4997070;28;20407;-86
2021/12/25 12:13:48;;;;;;;2.22;1.23;;;;;;;;;;4997095;28;20100;-86
2021/12/25 12:16:14;;;;;;;1.92;1.25;;;;;;;;;;4996642;28;20530;-86
2021/12/25 12:18:41;;;;;;;3.25;1.33;;;;;;;;;;5013144;28;20073;-86
2021/12/25 12:21:35;;;;;;;3.63;1.90;;;;;;;;;;5013549;28;20395;-85
2021/12/25 12:27:00;;;;;;;1.65;1.35;;;;;;;;;;5013236;28;20092;-86
2021/12/25 12:29:44;;;;;;;1.60;1.23;;;;;;;;;;5020179;28;20053;-85
2021/12/25 12:32:19;;;;;;;2.15;1.40;;;;;;;;;;5035609;28;20034;-85
2021/12/25 12:34:47;;;;;;;1.55;1.30;;;;;;;;;;5002029;28;20104;-85
2021/12/25 12:37:16;;;;;;;2.60;1.55;;;;;;;;;;5018388;28;20067;-86
2021/12/25 12:40:05;;;;;;;2.05;1.33;;;;;;;;;;5017884;28;20045;-85
2021/12/25 12:42:44;;;;;;;2.00;1.60;;;;;;;;;;5035888;28;20128;-85
2021/12/25 12:45:11;;;;;;;2.55;1.58;;;;;;;;;;5035361;28;20045;-85
2021/12/25 12:47:37;;;;;;;2.83;1.92;;;;;;;;;;5000936;28;20072;-85
2021/12/25 12:50:04;;;;;;;2.22;1.25;;;;;;;;;;4999338;28;20375;-86
2021/12/25 12:52:33;;;;;;;1.40;1.30;;;;;;;;;;4988904;28;20042;-85
2021/12/25 12:55:02;;;;;;;0.90;0.90;;;;;;;;;;5011572;28;20049;-85
2021/12/25 12:57:42;;;;;;;1.30;1.20;;;;;;;;;;4999042;28;20045;-85
2021/12/25 13:00:11;;;;;;;2.15;1.50;;;;;;;;;;5016374;28;20108;-85
2021/12/25 13:02:42;;;;;;;2.85;1.40;;;;;;;;;;5015832;28;20046;-85
2021/12/25 13:05:09;;;;;;;4.70;1.88;;;;;;;;;;4999019;28;20045;-85
2021/12/25 13:07:37;;;;;;;1.25;1.20;;;;;;;;;;4998860;28;20037;-85
2021/12/25 13:10:18;;;;;;;1.52;1.20;;;;;;;;;;4998946;28;20045;-85
2021/12/25 13:12:46;;;;;;;2.33;1.27;;;;;;;;;;5012898;28;20132;-85
2021/12/25 13:15:18;;;;;;;1.10;1.05;;;;;;;;;;4999423;28;20102;-85
2021/12/25 13:17:48;;;;;;;1.40;1.30;;;;;;;;;;4998811;28;20045;-85
2021/12/25 13:20:14;;;;;;;7.90;1.65;;;;;;;;;;4999074;28;20525;-85
2021/12/25 13:22:40;;;;;;;3.15;1.80;;;;;;;;;;5015194;28;20041;-86
2021/12/25 13:25:11;;;;;;;1.80;1.70;;;;;;;;;;4998846;28;20406;-85
2021/12/25 13:27:37;;;;;;;2.72;2.13;;;;;;;;;;5015299;28;20056;-85
2021/12/25 13:30:08;;;;;;;1.95;1.25;;;;;;;;;;4998929;28;20525;-85
2021/12/25 13:32:34;;;;;;;4.38;1.70;;;;;;;;;;4998647;28;20109;-84
2021/12/25 13:35:01;;;;;;;1.85;1.58;;;;;;;;;;4998345;28;20057;-85
2021/12/25 13:37:27;;;;;;;2.40;1.80;;;;;;;;;;5016116;28;20124;-85
2021/12/25 13:39:53;;;;;;;5.35;1.35;;;;;;;;;;4998982;28;20397;-85
2021/12/25 13:42:19;;;;;;;2.20;1.30;;;;;;;;;;5014793;28;20042;-85
2021/12/25 13:44:48;;;;;;;4.35;2.00;;;;;;;;;;4999655;28;20045;-85
2021/12/25 13:47:14;;;;;;;2.72;1.98;;;;;;;;;;5014876;28;20132;-85
2021/12/25 13:49:41;;;;;;;4.82;1.70;;;;;;;;;;5014925;28;20049;-85
2021/12/25 13:52:13;;;;;;;2.60;1.27;;;;;;;;;;5000206;28;20040;-84
2021/12/25 13:54:42;;;;;;;3.90;1.33;;;;;;;;;;5036436;28;20094;-85
2021/12/25 13:57:09;;;;;;;2.33;1.33;;;;;;;;;;5018494;28;20574;-85
2021/12/25 13:59:36;;;;;;;2.55;1.30;;;;;;;;;;5018392;28;20052;-85
2021/12/25 14:02:02;;;;;;;4.10;1.33;;;;;;;;;;5018556;28;20149;-85
2021/12/25 14:04:28;;;;;;;5.18;1.40;;;;;;;;;;5035890;28;20042;-85
2021/12/25 14:06:54;;;;;;;2.42;1.60;;;;;;;;;;5019334;28;20136;-85
2021/12/25 14:09:20;;;;;;;2.00;1.27;;;;;;;;;;5001824;28;20045;-86
2021/12/25 14:11:54;;;;;;;6.85;1.92;;;;;;;;;;5018077;28;20041;-85
2021/12/25 14:14:20;;;;;;;4.78;1.55;;;;;;;;;;5035651;28;20503;-85
2021/12/25 14:16:47;;;;;;;3.40;1.90;;;;;;;;;;5035956;28;20045;-85
2021/12/25 14:19:13;;;;;;;4.13;2.35;;;;;;;;;;5018784;28;20045;-85
2021/12/25 14:21:40;;;;;;;3.35;1.45;;;;;;;;;;5001606;28;20518;-85
2021/12/25 14:24:15;;;;;;;6.97;2.33;;;;;;;;;;5001679;28;20140;-85
2021/12/25 14:26:41;;;;;;;1.55;1.15;;;;;;;;;;5019206;28;20065;-85
2021/12/25 14:29:20;;;;;;;2.67;2.00;;;;;;;;;;5001382;28;20102;-85
2021/12/25 14:31:46;;;;;;;5.55;1.85;;;;;;;;;;5017780;28;20098;-85
2021/12/25 14:34:12;;;;;;;3.60;1.40;;;;;;;;;;5001120;28;20045;-88
2021/12/25 14:36:39;;;;;;;2.58;1.73;;;;;;;;;;5001797;28;20059;-90
2021/12/25 14:39:05;;;;;;;4.13;1.63;;;;;;;;;;5001807;28;20046;-90
2021/12/25 14:41:33;;;;;;;2.05;1.67;;;;;;;;;;5002025;28;20136;-88
2021/12/25 14:43:59;;;;;;;2.25;2.13;;;;;;;;;;5001740;28;20497;-90
2021/12/25 14:46:25;;;;;;;7.30;2.45;;;;;;;;;;5001809;28;20084;-90
2021/12/25 14:48:54;;;;;;;2.47;1.60;;;;;;;;;;5001611;28;20044;-91
2021/12/25 14:51:22;;;;;;;2.30;1.63;;;;;;;;;;5002898;28;20136;-91
2021/12/25 14:53:48;;;;;;;3.30;1.80;;;;;;;;;;5020315;28;20042;-91
2021/12/25 14:56:16;;;;;;;3.30;1.35;;;;;;;;;;5019552;28;20063;-88
2021/12/25 14:58:47;;;;;;;1.52;1.35;;;;;;;;;;5004339;28;20046;-90
2021/12/25 15:01:14;;;;;;;3.95;2.70;;;;;;;;;;5004085;28;20049;-89
2021/12/25 15:03:42;;;;;;;6.70;2.30;;;;;;;;;;5004534;28;20053;-91
2021/12/25 15:06:19;;;;;;;8.45;3.72;;;;;;;;;;5020145;28;20049;-89
2021/12/25 15:08:45;;;;;;;5.82;3.40;;;;;;;;;;5003005;28;20142;-91
2021/12/25 15:11:16;;;;;;;4.15;2.33;;;;;;;;;;5003814;28;20042;-91
2021/12/25 15:13:45;;;;;;;2.67;1.80;;;;;;;;;;5002890;28;20084;-85
2021/12/25 15:16:11;;;;;;;2.22;1.90;;;;;;;;;;5002644;28;20046;-85
2021/12/25 15:18:39;;;;;;;3.03;1.70;;;;;;;;;;5018900;28;20049;-85
2021/12/25 15:21:18;;;;;;;5.88;1.70;;;;;;;;;;5002695;28;20045;-85
2021/12/25 15:23:45;;;;;;;2.67;1.80;;;;;;;;;;5001960;28;20042;-86
2021/12/25 15:26:11;;;;;;;3.60;2.33;;;;;;;;;;5003480;28;20041;-87
2021/12/25 15:28:39;;;;;;;2.33;1.70;;;;;;;;;;5001972;28;20398;-85
2021/12/25 15:31:15;;;;;;;2.55;1.70;;;;;;;;;;5003332;28;20045;-85
2021/12/25 15:33:50;;;;;;;4.03;2.13;;;;;;;;;;5019478;28;20079;-86
2021/12/25 15:36:17;;;;;;;1.73;1.48;;;;;;;;;;5035583;28;20494;-85
2021/12/25 15:38:43;;;;;;;3.58;2.00;;;;;;;;;;5003314;28;20495;-86
2021/12/25 15:41:09;;;;;;;2.78;1.23;;;;;;;;;;5020707;28;20402;-85
2021/12/25 15:43:36;;;;;;;3.22;2.05;;;;;;;;;;5003244;28;20044;-85
2021/12/25 15:46:03;;;;;;;1.58;1.48;;;;;;;;;;5002327;28;20179;-85
2021/12/25 15:48:30;;;;;;;3.13;1.70;;;;;;;;;;5002184;28;20068;-86
2021/12/25 15:50:56;;;;;;;3.10;1.88;;;;;;;;;;5002066;28;20045;-86
2021/12/25 15:53:22;;;;;;;2.10;1.55;;;;;;;;;;5002041;28;20071;-86
2021/12/25 15:55:48;;;;;;;2.55;2.33;;;;;;;;;;5002140;28;20474;-85
2021/12/25 15:58:18;;;;;;;2.03;1.63;;;;;;;;;;5003091;28;20053;-85
2021/12/25 16:00:45;;;;;;;2.95;2.00;;;;;;;;;;5018232;28;20461;-85
2021/12/25 16:03:12;;;;;;;5.50;2.05;;;;;;;;;;5018018;28;20100;-85
2021/12/25 16:05:39;;;;;;;5.30;2.88;;;;;;;;;;5017919;28;20045;-85
2021/12/25 16:08:05;;;;;;;4.10;2.17;;;;;;;;;;5003213;28;20049;-85
2021/12/25 16:10:31;;;;;;;3.42;1.98;;;;;;;;;;5018887;28;20054;-85
2021/12/25 16:12:58;;;;;;;2.67;2.40;;;;;;;;;;5036336;28;20482;-86
2021/12/25 16:15:24;;;;;;;5.63;2.42;;;;;;;;;;5002838;28;20053;-86
2021/12/25 16:17:51;;;;;;;5.15;2.33;;;;;;;;;;5035973;28;20088;-85
2021/12/25 16:20:17;;;;;;;5.07;2.50;;;;;;;;;;5019109;28;20085;-86
2021/12/25 16:22:44;;;;;;;3.95;2.75;;;;;;;;;;5002547;28;20430;-86
2021/12/25 16:25:11;;;;;;;4.45;2.63;;;;;;;;;;5001994;28;20053;-86
2021/12/25 16:27:37;;;;;;;7.35;3.58;;;;;;;;;;5018568;28;20409;-86
2021/12/25 16:30:04;;;;;;;10.05;3.35;;;;;;;;;;5002060;28;20046;-87
2021/12/25 16:32:30;;;;;;;6.35;2.40;;;;;;;;;;4990059;28;20458;-86